Time;durP1;ratioP1;P1;durP2;ratioP2;P2;SDS_P1;SDS_P2;PMS_P1;PMS_P2;Temp;Humidity;BMP_temperature;BMP_pressure;BME280_temperature;BME280_humidity;BME280_pressure;Samples;Min_cycle;Max_cycle;Signal;HPM_P1;HPM_P2
2023/04/03 00:02:10;;;;;;;16.50;7.90;;;;;;;;;;4991251;28;20030;-69
2023/04/03 00:04:36;;;;;;;15.95;8.50;;;;;;;;;;4990386;28;20031;-68
2023/04/03 00:07:02;;;;;;;18.58;8.45;;;;;;;;;;4989709;28;20025;-69
2023/04/03 00:09:28;;;;;;;15.20;8.00;;;;;;;;;;4991140;28;20026;-69
2023/04/03 00:11:54;;;;;;;17.77;8.63;;;;;;;;;;4991034;28;20034;-69
2023/04/03 00:14:20;;;;;;;20.20;8.88;;;;;;;;;;4990333;28;20101;-69
2023/04/03 00:16:46;;;;;;;15.15;7.97;;;;;;;;;;4991241;28;20069;-69
2023/04/03 00:19:12;;;;;;;15.27;8.20;;;;;;;;;;4989616;28;20038;-68
2023/04/03 00:21:38;;;;;;;17.05;8.48;;;;;;;;;;5045999;23;20455;-61
2023/04/03 00:24:05;;;;;;;14.65;8.20;;;;;;;;;;5031063;28;20446;-61
2023/04/03 00:26:31;;;;;;;14.70;8.10;;;;;;;;;;5047348;28;20076;-61
2023/04/03 00:28:57;;;;;;;16.88;8.27;;;;;;;;;;5031793;28;20390;-61
2023/04/03 00:31:25;;;;;;;15.05;9.00;;;;;;;;;;5031756;28;20024;-60
2023/04/03 00:33:51;;;;;;;15.95;8.15;;;;;;;;;;5030794;28;20131;-60
2023/04/03 00:36:17;;;;;;;14.55;8.60;;;;;;;;;;5031121;28;20502;-62
2023/04/03 00:38:43;;;;;;;15.85;8.32;;;;;;;;;;5035314;28;20051;-61
2023/04/03 00:41:09;;;;;;;17.00;8.68;;;;;;;;;;5035478;28;20029;-57
2023/04/03 00:43:35;;;;;;;15.50;8.55;;;;;;;;;;5034686;28;20025;-60
2023/04/03 00:46:01;;;;;;;15.50;8.60;;;;;;;;;;5035484;28;20021;-58
2023/04/03 00:48:36;;;;;;;14.30;8.30;;;;;;;;;;5034047;28;20367;-56
2023/04/03 00:51:03;;;;;;;16.95;9.05;;;;;;;;;;5035196;28;20128;-60
2023/04/03 00:53:31;;;;;;;16.80;8.38;;;;;;;;;;5034400;28;20603;-60
2023/04/03 00:55:58;;;;;;;16.30;8.40;;;;;;;;;;5035243;28;20445;-61
2023/04/03 00:58:28;;;;;;;14.98;8.23;;;;;;;;;;5035015;28;20511;-62
2023/04/03 01:00:57;;;;;;;15.63;8.68;;;;;;;;;;5033674;28;20025;-59
2023/04/03 01:03:23;;;;;;;15.70;8.20;;;;;;;;;;5032971;28;20129;-61
2023/04/03 01:05:49;;;;;;;16.20;8.35;;;;;;;;;;5034877;28;20025;-59
2023/04/03 01:08:16;;;;;;;14.70;8.13;;;;;;;;;;5034944;28;20429;-59
2023/04/03 01:10:42;;;;;;;14.60;8.32;;;;;;;;;;5034765;28;20026;-60
2023/04/03 01:13:19;;;;;;;15.88;8.48;;;;;;;;;;5034119;28;20029;-60
2023/04/03 01:15:45;;;;;;;16.80;8.73;;;;;;;;;;5033595;28;20440;-60
2023/04/03 01:18:11;;;;;;;16.60;8.52;;;;;;;;;;5034863;28;20260;-58
2023/04/03 01:20:45;;;;;;;15.13;8.68;;;;;;;;;;5034618;28;20037;-60
2023/04/03 01:23:11;;;;;;;15.00;8.38;;;;;;;;;;5034144;28;20025;-57
2023/04/03 01:25:38;;;;;;;20.10;9.00;;;;;;;;;;5034520;28;20032;-61
2023/04/03 01:28:05;;;;;;;16.17;8.40;;;;;;;;;;5034555;28;20021;-59
2023/04/03 01:30:33;;;;;;;15.10;8.38;;;;;;;;;;5033239;28;20095;-62
2023/04/03 01:32:59;;;;;;;16.23;8.55;;;;;;;;;;5033861;28;20536;-59
2023/04/03 01:35:25;;;;;;;16.35;8.60;;;;;;;;;;5028640;28;20048;-62
2023/04/03 01:37:51;;;;;;;15.32;8.40;;;;;;;;;;5034180;28;20076;-59
2023/04/03 01:40:17;;;;;;;15.32;8.15;;;;;;;;;;5034180;28;20417;-60
2023/04/03 01:42:43;;;;;;;16.27;8.18;;;;;;;;;;5034082;28;20076;-60
2023/04/03 01:45:09;;;;;;;15.55;8.38;;;;;;;;;;5033546;28;20029;-58
2023/04/03 01:47:35;;;;;;;15.18;8.70;;;;;;;;;;5033603;28;20057;-59
2023/04/03 01:50:01;;;;;;;17.10;8.55;;;;;;;;;;5033789;28;20045;-56
2023/04/03 01:52:27;;;;;;;16.48;9.43;;;;;;;;;;5034054;28;20028;-59
2023/04/03 01:54:53;;;;;;;16.60;8.20;;;;;;;;;;5033416;28;20026;-59
2023/04/03 01:57:19;;;;;;;16.65;8.80;;;;;;;;;;5034083;28;20097;-59
2023/04/03 01:59:45;;;;;;;15.68;9.10;;;;;;;;;;5032989;28;20120;-57
2023/04/03 02:02:12;;;;;;;16.27;8.93;;;;;;;;;;5033929;28;20026;-59
2023/04/03 02:04:38;;;;;;;14.10;8.15;;;;;;;;;;5033693;28;20021;-57
2023/04/03 02:07:04;;;;;;;19.50;10.07;;;;;;;;;;5033907;28;20558;-57
2023/04/03 02:09:30;;;;;;;14.23;8.50;;;;;;;;;;5033984;28;20144;-59
2023/04/03 02:11:56;;;;;;;16.65;8.88;;;;;;;;;;5033864;28;20060;-59
2023/04/03 02:14:23;;;;;;;16.63;8.43;;;;;;;;;;5031437;28;20452;-60
2023/04/03 02:16:49;;;;;;;15.45;9.00;;;;;;;;;;5033501;28;20018;-59
2023/04/03 02:19:15;;;;;;;17.60;10.02;;;;;;;;;;5033547;28;20036;-61
2023/04/03 02:21:41;;;;;;;15.73;8.88;;;;;;;;;;5032112;28;20043;-61
2023/04/03 02:24:07;;;;;;;16.58;8.70;;;;;;;;;;5032638;28;20087;-61
2023/04/03 02:26:33;;;;;;;16.83;8.45;;;;;;;;;;5032671;28;20420;-60
2023/04/03 02:28:59;;;;;;;19.45;8.98;;;;;;;;;;5033523;28;20017;-61
2023/04/03 02:31:25;;;;;;;15.63;8.38;;;;;;;;;;5030926;28;20672;-60
2023/04/03 02:33:51;;;;;;;14.77;8.27;;;;;;;;;;5031092;28;20383;-58
2023/04/03 02:36:18;;;;;;;16.55;8.82;;;;;;;;;;5033141;28;20040;-60
2023/04/03 02:38:45;;;;;;;15.35;8.75;;;;;;;;;;5033180;28;20026;-58
2023/04/03 02:41:12;;;;;;;15.73;9.05;;;;;;;;;;5032871;28;20021;-59
2023/04/03 02:43:38;;;;;;;15.13;8.68;;;;;;;;;;5032218;28;20030;-59
2023/04/03 02:46:05;;;;;;;18.50;8.90;;;;;;;;;;5033131;28;20041;-61
2023/04/03 02:48:31;;;;;;;15.27;8.80;;;;;;;;;;5033196;28;20068;-59
2023/04/03 02:50:57;;;;;;;15.13;9.23;;;;;;;;;;5033124;28;20026;-59
2023/04/03 02:53:23;;;;;;;15.18;9.07;;;;;;;;;;5031166;28;20018;-62
2023/04/03 02:55:50;;;;;;;17.35;9.13;;;;;;;;;;5032823;28;20048;-60
2023/04/03 02:58:16;;;;;;;15.20;8.98;;;;;;;;;;5032974;28;20036;-60
2023/04/03 03:00:42;;;;;;;17.05;9.85;;;;;;;;;;5032704;28;20025;-59
2023/04/03 03:03:08;;;;;;;16.58;9.88;;;;;;;;;;5031789;28;20025;-58
2023/04/03 03:05:34;;;;;;;15.52;9.18;;;;;;;;;;5032576;28;20028;-60
2023/04/03 03:08:00;;;;;;;14.82;9.40;;;;;;;;;;5032786;28;20095;-59
2023/04/03 03:10:26;;;;;;;14.63;8.65;;;;;;;;;;5032361;28;20025;-54
2023/04/03 03:12:52;;;;;;;16.35;9.20;;;;;;;;;;5032581;28;20113;-58
2023/04/03 03:15:19;;;;;;;18.95;9.27;;;;;;;;;;5031920;28;20037;-56
2023/04/03 03:17:45;;;;;;;16.13;9.32;;;;;;;;;;5032560;28;20026;-60
2023/04/03 03:20:13;;;;;;;15.93;9.65;;;;;;;;;;5030983;28;20116;-59
2023/04/03 03:22:39;;;;;;;15.60;9.40;;;;;;;;;;5032343;28;20018;-59
2023/04/03 03:25:05;;;;;;;15.27;9.50;;;;;;;;;;5031546;28;20517;-60
2023/04/03 03:27:31;;;;;;;17.17;9.85;;;;;;;;;;5032477;28;20100;-62
2023/04/03 03:29:57;;;;;;;15.40;9.40;;;;;;;;;;5030806;28;20494;-60
2023/04/03 03:32:24;;;;;;;17.60;9.77;;;;;;;;;;5032231;28;20385;-58
2023/04/03 03:34:50;;;;;;;15.30;9.60;;;;;;;;;;5031480;28;20040;-61
2023/04/03 03:37:16;;;;;;;18.30;9.55;;;;;;;;;;5032280;28;20025;-61
2023/04/03 03:39:42;;;;;;;16.30;9.68;;;;;;;;;;5030624;28;20118;-60
2023/04/03 03:42:08;;;;;;;15.43;9.38;;;;;;;;;;5030857;28;20065;-60
2023/04/03 03:44:34;;;;;;;15.88;9.02;;;;;;;;;;5031232;28;20111;-61
2023/04/03 03:47:00;;;;;;;15.57;9.50;;;;;;;;;;5031780;28;20030;-59
2023/04/03 03:49:26;;;;;;;16.45;10.15;;;;;;;;;;5027250;28;20022;-60
2023/04/03 03:51:52;;;;;;;17.27;10.02;;;;;;;;;;5031720;28;20047;-61
2023/04/03 03:54:18;;;;;;;17.20;10.38;;;;;;;;;;5029799;28;20029;-60
2023/04/03 03:56:44;;;;;;;16.23;9.77;;;;;;;;;;5030642;28;20105;-62
2023/04/03 03:59:12;;;;;;;16.73;9.75;;;;;;;;;;5031705;28;20391;-60
2023/04/03 04:01:38;;;;;;;17.40;9.98;;;;;;;;;;5031436;28;20445;-58
2023/04/03 04:04:04;;;;;;;15.60;9.80;;;;;;;;;;5030943;28;20072;-59
2023/04/03 04:06:30;;;;;;;17.58;10.30;;;;;;;;;;5031543;28;20025;-60
2023/04/03 04:08:56;;;;;;;17.20;10.52;;;;;;;;;;5031208;28;20022;-61
2023/04/03 04:11:22;;;;;;;18.98;10.65;;;;;;;;;;5030999;28;20029;-60
2023/04/03 04:13:48;;;;;;;16.05;10.82;;;;;;;;;;5030737;28;20025;-60
2023/04/03 04:16:14;;;;;;;18.00;11.23;;;;;;;;;;5031632;28;20022;-59
2023/04/03 04:18:40;;;;;;;17.08;10.77;;;;;;;;;;5030252;28;20029;-61
2023/04/03 04:21:06;;;;;;;20.88;12.10;;;;;;;;;;5031047;28;20505;-61
2023/04/03 04:23:32;;;;;;;17.00;10.48;;;;;;;;;;5030958;28;20018;-59
2023/04/03 04:25:58;;;;;;;18.65;11.68;;;;;;;;;;5031515;28;20029;-58
2023/04/03 04:28:24;;;;;;;15.55;10.55;;;;;;;;;;5031382;28;20455;-58
2023/04/03 04:30:50;;;;;;;20.23;11.07;;;;;;;;;;5031324;28;20552;-59
2023/04/03 04:33:16;;;;;;;18.17;11.27;;;;;;;;;;5030675;28;20076;-57
2023/04/03 04:35:43;;;;;;;18.20;11.40;;;;;;;;;;5031481;28;20556;-61
2023/04/03 04:38:09;;;;;;;18.33;11.85;;;;;;;;;;5031404;28;20501;-57
2023/04/03 04:40:37;;;;;;;18.52;11.38;;;;;;;;;;5031292;28;20524;-59
2023/04/03 04:43:03;;;;;;;19.38;10.75;;;;;;;;;;5029365;28;20034;-60
2023/04/03 04:45:29;;;;;;;18.08;11.07;;;;;;;;;;5031167;28;20060;-58
2023/04/03 04:47:56;;;;;;;21.23;12.32;;;;;;;;;;5031290;28;20021;-61
2023/04/03 04:50:22;;;;;;;18.77;10.90;;;;;;;;;;5030954;28;20018;-61
2023/04/03 04:52:49;;;;;;;17.42;11.43;;;;;;;;;;5030847;28;20078;-58
2023/04/03 04:55:15;;;;;;;17.63;10.55;;;;;;;;;;5029177;28;20022;-58
2023/04/03 04:57:41;;;;;;;16.88;10.50;;;;;;;;;;5029786;28;20026;-59
2023/04/03 05:00:07;;;;;;;18.75;10.68;;;;;;;;;;5031181;28;20421;-57
2023/04/03 05:02:33;;;;;;;19.23;10.73;;;;;;;;;;5031545;28;20022;-59
2023/04/03 05:04:59;;;;;;;20.40;11.90;;;;;;;;;;5030189;28;20025;-60
2023/04/03 05:07:25;;;;;;;18.58;11.40;;;;;;;;;;5031157;28;20032;-60
2023/04/03 05:09:51;;;;;;;22.42;10.90;;;;;;;;;;5031002;28;20030;-59
2023/04/03 05:12:17;;;;;;;17.48;10.70;;;;;;;;;;5030787;28;20038;-59
2023/04/03 05:14:43;;;;;;;16.45;10.70;;;;;;;;;;5029989;28;20026;-59
2023/04/03 05:17:09;;;;;;;19.48;10.82;;;;;;;;;;5030648;28;20051;-59
2023/04/03 05:19:35;;;;;;;17.38;11.13;;;;;;;;;;5030658;28;20089;-59
2023/04/03 05:22:02;;;;;;;17.52;10.65;;;;;;;;;;5030318;28;20035;-59
2023/04/03 05:24:28;;;;;;;18.90;10.63;;;;;;;;;;5032742;28;20519;-56
2023/04/03 05:26:54;;;;;;;20.15;11.98;;;;;;;;;;5034313;28;20029;-60
2023/04/03 05:29:20;;;;;;;16.23;10.55;;;;;;;;;;5034136;28;20124;-60
2023/04/03 05:31:46;;;;;;;17.63;10.90;;;;;;;;;;5032803;28;20483;-59
2023/04/03 05:34:12;;;;;;;17.15;11.73;;;;;;;;;;5032020;28;20067;-58
2023/04/03 05:36:38;;;;;;;18.17;11.07;;;;;;;;;;5032698;28;20075;-58
2023/04/03 05:39:04;;;;;;;17.17;10.90;;;;;;;;;;5031679;28;20493;-59
2023/04/03 05:41:30;;;;;;;16.38;11.10;;;;;;;;;;5040839;28;20054;-60
2023/04/03 05:43:56;;;;;;;17.95;10.38;;;;;;;;;;5040583;28;20486;-59
2023/04/03 05:46:22;;;;;;;16.58;10.50;;;;;;;;;;5037216;28;20030;-60
2023/04/03 05:48:48;;;;;;;17.35;11.00;;;;;;;;;;5032543;28;20022;-56
2023/04/03 05:51:19;;;;;;;19.98;10.82;;;;;;;;;;5033847;28;20482;-59
2023/04/03 05:53:46;;;;;;;19.80;11.20;;;;;;;;;;5033106;28;20072;-57
2023/04/03 05:56:12;;;;;;;17.75;10.50;;;;;;;;;;5033698;28;20021;-61
2023/04/03 05:58:38;;;;;;;18.58;10.73;;;;;;;;;;5033692;28;20093;-61
2023/04/03 06:01:05;;;;;;;17.30;10.60;;;;;;;;;;5032293;28;20029;-61
2023/04/03 06:03:31;;;;;;;18.63;10.30;;;;;;;;;;5033396;28;20056;-59
2023/04/03 06:05:57;;;;;;;17.42;10.52;;;;;;;;;;5034554;28;20025;-58
2023/04/03 06:08:23;;;;;;;15.68;10.55;;;;;;;;;;5033759;28;20025;-52
2023/04/03 06:10:51;;;;;;;15.57;10.73;;;;;;;;;;5033673;28;20482;-60
2023/04/03 06:13:17;;;;;;;17.90;11.43;;;;;;;;;;5032491;28;20124;-60
2023/04/03 06:15:43;;;;;;;20.08;10.90;;;;;;;;;;5033645;28;20037;-62
2023/04/03 06:18:09;;;;;;;17.10;10.77;;;;;;;;;;5033298;28;20453;-55
2023/04/03 06:20:35;;;;;;;16.60;10.50;;;;;;;;;;5032901;28;20033;-58
2023/04/03 06:23:02;;;;;;;18.38;11.13;;;;;;;;;;5028303;28;20051;-64
2023/04/03 06:25:28;;;;;;;16.95;10.40;;;;;;;;;;5032771;28;20025;-62
2023/04/03 06:27:55;;;;;;;20.13;11.82;;;;;;;;;;5032803;28;20615;-61
2023/04/03 06:30:21;;;;;;;21.58;12.20;;;;;;;;;;5032865;28;20021;-61
2023/04/03 06:32:48;;;;;;;17.58;10.80;;;;;;;;;;5032399;28;20013;-64
2023/04/03 06:35:14;;;;;;;17.13;11.27;;;;;;;;;;5031907;28;20431;-61
2023/04/03 06:37:40;;;;;;;16.95;11.70;;;;;;;;;;5032475;28;20021;-57
2023/04/03 06:40:07;;;;;;;20.67;11.10;;;;;;;;;;5031111;28;20036;-59
2023/04/03 06:42:33;;;;;;;19.23;10.93;;;;;;;;;;5032853;28;20407;-57
2023/04/03 06:45:00;;;;;;;17.40;10.55;;;;;;;;;;5031985;28;20057;-63
2023/04/03 06:47:26;;;;;;;17.75;10.68;;;;;;;;;;5031388;28;20543;-64
2023/04/03 06:49:52;;;;;;;19.17;10.38;;;;;;;;;;5026499;28;20123;-61
2023/04/03 06:52:18;;;;;;;18.35;11.50;;;;;;;;;;5032234;28;20049;-60
2023/04/03 06:54:44;;;;;;;16.88;10.20;;;;;;;;;;5031414;28;20091;-59
2023/04/03 06:57:10;;;;;;;16.13;9.93;;;;;;;;;;5031988;28;20100;-64
2023/04/03 06:59:36;;;;;;;18.63;10.25;;;;;;;;;;5032281;28;20107;-64
2023/04/03 07:02:03;;;;;;;17.23;10.23;;;;;;;;;;5032407;28;20026;-61
2023/04/03 07:04:29;;;;;;;17.33;10.02;;;;;;;;;;5031616;28;20080;-63
2023/04/03 07:06:55;;;;;;;16.20;10.32;;;;;;;;;;5032157;28;20032;-63
2023/04/03 07:09:21;;;;;;;15.40;9.82;;;;;;;;;;5032148;28;20405;-62
2023/04/03 07:11:47;;;;;;;16.95;9.98;;;;;;;;;;5032002;28;20027;-62
2023/04/03 07:14:13;;;;;;;18.08;10.32;;;;;;;;;;5031451;28;20036;-59
2023/04/03 07:16:39;;;;;;;16.23;9.75;;;;;;;;;;5032034;28;20486;-63
2023/04/03 07:19:05;;;;;;;18.67;10.73;;;;;;;;;;5030044;28;20025;-62
2023/04/03 07:21:31;;;;;;;18.25;10.30;;;;;;;;;;5028918;28;20551;-61
2023/04/03 07:23:57;;;;;;;16.95;10.63;;;;;;;;;;5027579;28;20021;-62
2023/04/03 07:26:24;;;;;;;16.83;10.73;;;;;;;;;;5029769;28;20017;-62
2023/04/03 07:28:50;;;;;;;16.13;10.70;;;;;;;;;;5028153;28;20035;-63
2023/04/03 07:31:16;;;;;;;17.25;10.40;;;;;;;;;;5029471;28;20043;-62
2023/04/03 07:33:43;;;;;;;30.42;11.43;;;;;;;;;;5029274;28;20075;-62
2023/04/03 07:36:10;;;;;;;17.60;10.70;;;;;;;;;;5031733;28;20060;-61
2023/04/03 07:38:37;;;;;;;16.67;10.65;;;;;;;;;;5031654;28;20074;-59
2023/04/03 07:41:03;;;;;;;17.52;10.57;;;;;;;;;;5031373;28;20045;-60
2023/04/03 07:43:29;;;;;;;17.40;10.68;;;;;;;;;;5029949;28;20022;-63
2023/04/03 07:45:55;;;;;;;19.27;10.27;;;;;;;;;;5030857;28;20025;-63
2023/04/03 07:48:23;;;;;;;15.45;10.10;;;;;;;;;;5031505;28;20371;-63
2023/04/03 07:50:49;;;;;;;17.73;11.20;;;;;;;;;;5026181;28;20529;-61
2023/04/03 07:53:16;;;;;;;16.73;10.55;;;;;;;;;;5029286;28;20381;-62
2023/04/03 07:55:45;;;;;;;18.00;10.70;;;;;;;;;;5031530;28;20034;-61
2023/04/03 07:58:11;;;;;;;17.45;10.40;;;;;;;;;;5033269;28;20032;-64
2023/04/03 08:00:38;;;;;;;17.52;10.57;;;;;;;;;;5036589;28;20689;-59
2023/04/03 08:03:04;;;;;;;18.20;10.55;;;;;;;;;;5032600;28;20113;-54
2023/04/03 08:05:30;;;;;;;17.20;10.73;;;;;;;;;;5031178;28;20029;-53
2023/04/03 08:07:58;;;;;;;16.23;10.43;;;;;;;;;;5029113;28;20041;-60
2023/04/03 08:10:47;;;;;;;17.02;10.07;;;;;;;;;;5032277;28;20021;-66
2023/04/03 08:13:12;;;;;;;19.77;10.40;;;;;;;;;;5030071;28;20053;-61
2023/04/03 08:15:38;;;;;;;16.75;10.70;;;;;;;;;;5031262;28;20021;-62
2023/04/03 08:18:04;;;;;;;19.73;10.63;;;;;;;;;;5031195;28;20378;-57
2023/04/03 08:20:33;;;;;;;16.67;10.10;;;;;;;;;;5030916;28;20061;-63
2023/04/03 08:22:59;;;;;;;18.27;10.82;;;;;;;;;;5029585;28;20029;-61
2023/04/03 08:25:25;;;;;;;15.52;10.55;;;;;;;;;;5030458;28;20026;-61
2023/04/03 08:27:51;;;;;;;18.90;11.18;;;;;;;;;;5031023;28;20588;-62
2023/04/03 08:30:18;;;;;;;17.83;10.80;;;;;;;;;;5031030;28;20482;-60
2023/04/03 08:32:44;;;;;;;14.98;9.90;;;;;;;;;;5029832;28;20029;-62
2023/04/03 08:35:11;;;;;;;16.65;10.65;;;;;;;;;;5030035;28;20505;-58
2023/04/03 08:37:37;;;;;;;17.05;10.70;;;;;;;;;;5029827;28;20034;-62
2023/04/03 08:40:07;;;;;;;16.63;11.30;;;;;;;;;;5030949;28;20026;-62
2023/04/03 08:42:42;;;;;;;17.13;10.68;;;;;;;;;;5030862;28;20017;-62
2023/04/03 08:45:17;;;;;;;17.98;11.52;;;;;;;;;;5030467;28;20375;-62
2023/04/03 08:47:49;;;;;;;15.88;10.63;;;;;;;;;;5030849;28;20482;-63
2023/04/03 08:50:20;;;;;;;19.52;10.63;;;;;;;;;;5030562;28;20026;-61
2023/04/03 08:52:51;;;;;;;18.42;11.10;;;;;;;;;;5030680;28;20470;-61
2023/04/03 08:55:23;;;;;;;17.20;10.73;;;;;;;;;;5029077;28;20033;-59
2023/04/03 08:57:51;;;;;;;16.25;11.20;;;;;;;;;;5032371;28;20489;-61
2023/04/03 09:00:23;;;;;;;19.33;12.65;;;;;;;;;;5034514;28;20545;-61
2023/04/03 09:02:53;;;;;;;17.35;10.90;;;;;;;;;;5034563;28;20043;-61
2023/04/03 09:05:33;;;;;;;16.00;10.63;;;;;;;;;;5034226;28;20028;-60
2023/04/03 09:08:08;;;;;;;16.95;10.70;;;;;;;;;;5033539;28;20017;-61
2023/04/03 09:10:35;;;;;;;16.58;11.02;;;;;;;;;;5034584;28;20021;-62
2023/04/03 09:13:22;;;;;;;15.70;10.88;;;;;;;;;;5033256;28;20103;-63
2023/04/03 09:15:48;;;;;;;16.48;11.15;;;;;;;;;;5012580;28;20030;-63
2023/04/03 09:18:17;;;;;;;17.52;10.82;;;;;;;;;;5034071;28;20033;-63
2023/04/03 09:20:49;;;;;;;17.75;13.07;;;;;;;;;;5033755;28;20025;-57
2023/04/03 09:23:41;;;;;;;16.80;11.43;;;;;;;;;;5032982;28;20020;-60
2023/04/03 09:26:15;;;;;;;16.67;10.73;;;;;;;;;;5030224;28;20132;-61
2023/04/03 09:28:42;;;;;;;15.52;10.65;;;;;;;;;;5033734;28;20080;-61
2023/04/03 09:31:20;;;;;;;15.07;11.30;;;;;;;;;;5033404;28;20055;-60
2023/04/03 09:33:47;;;;;;;15.63;11.20;;;;;;;;;;5032096;28;20017;-62
2023/04/03 09:36:13;;;;;;;16.55;11.57;;;;;;;;;;5033777;28;20064;-63
2023/04/03 09:38:39;;;;;;;15.80;11.40;;;;;;;;;;5032653;28;20053;-63
2023/04/03 09:41:07;;;;;;;16.60;11.27;;;;;;;;;;5033474;28;20068;-62
2023/04/03 09:43:34;;;;;;;16.63;11.13;;;;;;;;;;5032954;28;20064;-62
2023/04/03 09:46:18;;;;;;;18.63;12.05;;;;;;;;;;5032356;28;20026;-61
2023/04/03 09:48:50;;;;;;;18.02;11.32;;;;;;;;;;5033392;28;20028;-62
2023/04/03 09:51:16;;;;;;;15.82;11.05;;;;;;;;;;5033311;28;20028;-63
2023/04/03 09:53:44;;;;;;;17.00;11.35;;;;;;;;;;5033253;28;20184;-63
2023/04/03 09:56:21;;;;;;;16.40;11.30;;;;;;;;;;5033968;28;20029;-61
2023/04/03 09:58:49;;;;;;;16.30;11.18;;;;;;;;;;5033689;28;20079;-61
2023/04/03 10:01:21;;;;;;;20.65;11.07;;;;;;;;;;5033581;28;20048;-62
2023/04/03 10:04:02;;;;;;;16.45;10.70;;;;;;;;;;5033120;28;20112;-60
2023/04/03 10:06:31;;;;;;;17.67;10.70;;;;;;;;;;5033367;28;20025;-59
2023/04/03 10:09:01;;;;;;;16.42;11.20;;;;;;;;;;5033012;28;20025;-62
2023/04/03 10:11:27;;;;;;;16.25;11.40;;;;;;;;;;5033392;28;20092;-62
2023/04/03 10:13:56;;;;;;;15.32;10.55;;;;;;;;;;5032403;28;20021;-61
2023/04/03 10:16:27;;;;;;;16.17;11.32;;;;;;;;;;5033386;28;20028;-60
2023/04/03 10:18:53;;;;;;;17.08;11.30;;;;;;;;;;5033384;28;20100;-61
2023/04/03 10:21:27;;;;;;;16.05;10.85;;;;;;;;;;5033120;28;20037;-61
2023/04/03 10:24:01;;;;;;;15.75;10.50;;;;;;;;;;5032169;28;20072;-59
2023/04/03 10:26:31;;;;;;;15.57;10.77;;;;;;;;;;5033167;28;20021;-62
2023/04/03 10:29:00;;;;;;;15.57;10.75;;;;;;;;;;5030563;28;20033;-63
2023/04/03 10:31:30;;;;;;;16.30;11.02;;;;;;;;;;5031240;28;20018;-63
2023/04/03 10:34:05;;;;;;;17.30;11.50;;;;;;;;;;5028122;28;20108;-61
2023/04/03 10:36:39;;;;;;;16.70;11.57;;;;;;;;;;5032722;28;20117;-61
2023/04/03 10:39:10;;;;;;;17.02;10.63;;;;;;;;;;5032373;28;20386;-60
2023/04/03 10:41:40;;;;;;;16.33;10.90;;;;;;;;;;5030201;28;20017;-63
2023/04/03 10:44:06;;;;;;;15.43;10.82;;;;;;;;;;5031656;28;20017;-64
2023/04/03 10:46:35;;;;;;;18.15;10.93;;;;;;;;;;5030740;28;20087;-63
2023/04/03 10:49:04;;;;;;;14.80;10.30;;;;;;;;;;5032327;28;20020;-61
2023/04/03 10:51:34;;;;;;;17.08;10.25;;;;;;;;;;5032072;28;20017;-61
2023/04/03 10:54:11;;;;;;;17.05;11.30;;;;;;;;;;5031214;28;20028;-61
2023/04/03 10:56:42;;;;;;;16.65;10.88;;;;;;;;;;5029467;28;20105;-63
2023/04/03 10:59:21;;;;;;;16.83;10.75;;;;;;;;;;5031660;28;20026;-62
2023/04/03 11:01:52;;;;;;;18.23;11.85;;;;;;;;;;5031129;28;20013;-61
2023/04/03 11:04:20;;;;;;;15.90;11.27;;;;;;;;;;5029054;28;20021;-63
2023/04/03 11:06:57;;;;;;;22.52;11.30;;;;;;;;;;5031764;28;20470;-63
2023/04/03 11:09:26;;;;;;;17.45;10.90;;;;;;;;;;5030249;28;20018;-63
2023/04/03 11:11:56;;;;;;;18.77;11.23;;;;;;;;;;5030358;28;20022;-59
2023/04/03 11:14:28;;;;;;;18.38;11.45;;;;;;;;;;5031050;28;20074;-59
2023/04/03 11:17:00;;;;;;;15.23;10.73;;;;;;;;;;5029273;28;20083;-61
2023/04/03 11:19:35;;;;;;;17.45;10.80;;;;;;;;;;5032613;28;20093;-55
2023/04/03 11:22:07;;;;;;;16.33;10.95;;;;;;;;;;5031774;28;20189;-59
2023/04/03 11:24:34;;;;;;;15.82;11.05;;;;;;;;;;5030867;28;20032;-58
2023/04/03 11:27:04;;;;;;;16.63;11.43;;;;;;;;;;5032561;28;20033;-59
2023/04/03 11:29:33;;;;;;;16.13;11.63;;;;;;;;;;5032117;28;20025;-59
2023/04/03 11:32:08;;;;;;;15.85;11.32;;;;;;;;;;5031686;28;20021;-63
2023/04/03 11:34:38;;;;;;;16.33;11.45;;;;;;;;;;5029836;28;20081;-62
2023/04/03 11:37:06;;;;;;;15.32;11.40;;;;;;;;;;5031529;28;20044;-63
2023/04/03 11:39:33;;;;;;;;;;;;;;;;;;5029341;28;20079;-64
2023/04/03 11:42:15;;;;;;;17.15;11.90;;;;;;;;;;5037779;28;19911;-63
2023/04/03 11:44:41;;;;;;;16.73;12.50;;;;;;;;;;5028039;28;20517;-63
2023/04/03 11:47:12;;;;;;;16.85;12.15;;;;;;;;;;5031323;28;20040;-63
2023/04/03 11:49:57;;;;;;;17.60;12.27;;;;;;;;;;5031306;28;20022;-63
2023/04/03 11:52:39;;;;;;;17.13;12.13;;;;;;;;;;5030540;28;20049;-62
2023/04/03 11:55:23;;;;;;;22.08;12.43;;;;;;;;;;5029868;28;20090;-61
2023/04/03 11:57:51;;;;;;;18.60;11.55;;;;;;;;;;5031010;28;20195;-63
2023/04/03 12:00:36;;;;;;;17.08;11.52;;;;;;;;;;5030986;28;20028;-63
2023/04/03 12:03:02;;;;;;;17.75;12.48;;;;;;;;;;5029526;28;20026;-61
2023/04/03 12:05:30;;;;;;;15.98;11.45;;;;;;;;;;5031250;28;20030;-61
2023/04/03 12:08:15;;;;;;;17.65;12.63;;;;;;;;;;5031383;28;20128;-62
2023/04/03 12:10:41;;;;;;;16.00;11.85;;;;;;;;;;5031420;28;20022;-63
2023/04/03 12:13:14;;;;;;;19.00;11.73;;;;;;;;;;5030528;28;20021;-62
2023/04/03 12:15:40;;;;;;;18.02;12.20;;;;;;;;;;5031003;28;20033;-62
2023/04/03 12:18:25;;;;;;;17.48;12.10;;;;;;;;;;5029331;28;20167;-57
2023/04/03 12:20:51;;;;;;;16.40;12.18;;;;;;;;;;5051722;22;20099;-63
2023/04/03 12:23:34;;;;;;;17.33;13.07;;;;;;;;;;5029165;28;20113;-66
2023/04/03 12:26:25;;;;;;;18.90;12.80;;;;;;;;;;5029710;28;20113;-65
2023/04/03 12:28:52;;;;;;;17.08;12.90;;;;;;;;;;5029804;28;20061;-63
2023/04/03 12:31:19;;;;;;;17.40;13.48;;;;;;;;;;5035386;28;20044;-64
2023/04/03 12:34:02;;;;;;;17.60;12.85;;;;;;;;;;5051594;28;20028;-63
2023/04/03 12:36:34;;;;;;;16.75;12.68;;;;;;;;;;5052452;28;20028;-66
2023/04/03 12:39:04;;;;;;;17.85;12.13;;;;;;;;;;5052905;28;20477;-62
2023/04/03 12:41:39;;;;;;;16.00;12.25;;;;;;;;;;5053701;28;20116;-65
2023/04/03 12:44:08;;;;;;;18.10;12.43;;;;;;;;;;5053105;28;20037;-63
2023/04/03 12:46:44;;;;;;;17.38;11.90;;;;;;;;;;5051886;28;20021;-64
2023/04/03 12:49:37;;;;;;;18.70;12.00;;;;;;;;;;5053411;28;20047;-64
2023/04/03 12:52:21;;;;;;;15.65;11.50;;;;;;;;;;5050848;28;20109;-61
2023/04/03 12:54:48;;;;;;;17.88;11.63;;;;;;;;;;5052961;28;20097;-63
2023/04/03 12:57:27;;;;;;;16.38;11.63;;;;;;;;;;5054003;28;20064;-66
2023/04/03 12:59:53;;;;;;;17.90;12.45;;;;;;;;;;5053412;28;20029;-64
2023/04/03 13:02:25;;;;;;;16.92;12.05;;;;;;;;;;5053483;28;20033;-64
2023/04/03 13:04:53;;;;;;;16.20;12.35;;;;;;;;;;5051844;28;20079;-65
2023/04/03 13:07:20;;;;;;;19.00;12.60;;;;;;;;;;5053341;28;20029;-61
2023/04/03 13:09:55;;;;;;;17.67;12.93;;;;;;;;;;5053212;28;20033;-65
2023/04/03 13:12:21;;;;;;;18.05;12.75;;;;;;;;;;5053216;28;20044;-66
2023/04/03 13:14:58;;;;;;;16.35;12.10;;;;;;;;;;5052457;28;20025;-65
2023/04/03 13:17:25;;;;;;;16.42;12.88;;;;;;;;;;5058382;28;20366;-65
2023/04/03 13:19:51;;;;;;;19.40;12.43;;;;;;;;;;5062626;28;20150;-65
2023/04/03 13:22:23;;;;;;;16.20;12.38;;;;;;;;;;5059981;28;20036;-62
2023/04/03 13:24:51;;;;;;;16.10;12.68;;;;;;;;;;5052708;28;20028;-62
2023/04/03 13:27:17;;;;;;;17.40;12.63;;;;;;;;;;5051744;28;20021;-64
2023/04/03 13:29:43;;;;;;;16.48;12.43;;;;;;;;;;5052697;28;20450;-64
2023/04/03 13:32:18;;;;;;;17.15;12.98;;;;;;;;;;5052657;28;20028;-65
2023/04/03 13:34:44;;;;;;;15.95;12.15;;;;;;;;;;5051703;28;20104;-65
2023/04/03 13:37:24;;;;;;;17.95;12.80;;;;;;;;;;5052747;28;20020;-66
2023/04/03 13:40:11;;;;;;;18.80;12.95;;;;;;;;;;5049346;28;20389;-66
2023/04/03 13:42:40;;;;;;;17.15;12.80;;;;;;;;;;5043373;28;20021;-64
2023/04/03 13:45:15;;;;;;;18.33;12.48;;;;;;;;;;5045277;28;20049;-63
2023/04/03 13:47:42;;;;;;;17.67;12.10;;;;;;;;;;5052372;28;20140;-64
2023/04/03 13:50:20;;;;;;;17.13;13.30;;;;;;;;;;5052582;28;20044;-63
2023/04/03 13:52:52;;;;;;;17.45;12.82;;;;;;;;;;5052167;28;20065;-63
2023/04/03 13:55:18;;;;;;;16.95;12.57;;;;;;;;;;5051507;28;20029;-65
2023/04/03 13:57:56;;;;;;;17.60;12.77;;;;;;;;;;5052190;28;20032;-65
2023/04/03 14:00:30;;;;;;;17.65;12.65;;;;;;;;;;5052315;28;20021;-65
2023/04/03 14:02:56;;;;;;;19.25;12.90;;;;;;;;;;5051645;28;20387;-66
2023/04/03 14:05:24;;;;;;;18.98;12.98;;;;;;;;;;5051518;28;20065;-63
2023/04/03 14:07:50;;;;;;;17.63;13.20;;;;;;;;;;5052240;28;20032;-62
2023/04/03 14:10:17;;;;;;;15.85;12.98;;;;;;;;;;5051909;28;20017;-66
2023/04/03 14:12:43;;;;;;;17.15;12.52;;;;;;;;;;5051751;28;20017;-65
2023/04/03 14:15:18;;;;;;;18.77;13.18;;;;;;;;;;5051173;28;20056;-65
2023/04/03 14:17:44;;;;;;;17.23;13.50;;;;;;;;;;5051595;28;20036;-65
2023/04/03 14:20:15;;;;;;;18.42;13.30;;;;;;;;;;5051927;28;20405;-65
2023/04/03 14:22:41;;;;;;;18.60;13.05;;;;;;;;;;5051597;28;20393;-65
2023/04/03 14:25:07;;;;;;;18.30;13.32;;;;;;;;;;5049451;28;20037;-63
2023/04/03 14:27:37;;;;;;;16.50;12.70;;;;;;;;;;5051828;28;20025;-65
2023/04/03 14:30:04;;;;;;;19.67;13.25;;;;;;;;;;5051448;28;20112;-62